Historyczne dane pomiarowe

Dodano dane terminowe – wersja testowa.

Dane z okresu 1951-2019

Wersja bazy: 1.34 [2019-03-16, lista zmian], aktualizacja planowana na 2019-04-15

Dane meteo z obszaru Polski uzyskane na podstawie danych udostępnionych przez Instytut Meteorologii i Gospodarki Wodnej – Państwowy Instytut Badawczy.

 

Wybierz Datę:    

       

TemperaturaWilgotnośćWiatrCiśnienieOpadyŚniegCzas trwania zjawisk
 Stacja t tx tn tng RH VA  wxwx mslp ppp RRR   cm mm wxwxwxwxwxwxwx
1956-11-09 -3.0 0.9 -6.0 -7.5 83.5- 1.0 4.7---- 0.0------------
1956-11-08 -1.3 1.5 -4.0 -1.7 93.5- 3.3 2.7---- 0.0-- 3---------
1956-11-07 0.5 3.0 0.2 0.0100.0- 8.0 0.3---- 7.6-- 2---------
1956-11-06 2.6 5.4 1.1 -0.6 90.5- 7.0 4.3---- 14.0------------
1956-11-05 5.7 8.0 2.8 2.6 84.8- 7.0 4.3---- 1.3------------
1956-11-04 2.4 4.9 -2.4 -7.6 82.5- 6.7 0.7---- 0.1------------
1956-11-03 1.2 3.4 -0.4 -1.9 90.0- 7.3 2.0---- 0.0------------
1956-11-02 0.2 1.5 -0.8 -5.0100.0- 8.0 1.3---- 0.5------------
1956-11-01 -0.6 4.1 -7.3-12.5 77.8- 1.7 1.0---- 0.5------------
1956-10-31 -3.5 3.0 -4.9 -6.0 83.3- 3.3 3.7---- 0.0------------
1956-10-30 4.2 7.2 2.6 1.1 94.5- 7.7 3.7---- 0.0------------
1956-10-29 5.6 9.0 4.7 5.2 95.3- 8.0 5.0---- 14.8------------
1956-10-28 7.6 9.7 5.7 5.7 99.0- 8.0 3.7---- 31.2------------
1956-10-27 8.7 10.0 5.6 5.4 99.8- 8.0 1.7---- 13.8------------
1956-10-26 6.7 10.4 5.9 7.0 96.3- 8.0 0.7---- 15.1------------
1956-10-25 11.8 16.9 8.3 0.5 84.5- 6.7 1.7---- 14.3------------
1956-10-24 13.3 20.3 4.2 -0.3 74.3- 3.3 1.7---- 0.0------------
1956-10-23 10.0 16.1 7.0 1.4 88.5- 3.3 1.3---- 0.0------------
1956-10-22 11.3 19.6 4.4 0.5 87.0- 0.0 1.3---- 0.0------------
1956-10-21 12.5 18.8 9.6 9.0 86.3- 4.0 2.0---- 0.0------------
1956-10-20 11.9 16.1 8.0 3.6 86.5- 6.0 0.7---- 0.0------------
1956-10-19 12.2 14.5 10.6 9.7 90.8- 7.7 1.3---- 0.2------------
1956-10-18 12.4 14.5 5.0 -0.4 88.0- 8.0 0.7---- 3.2------------
1956-10-17 6.8 18.3 -0.9 -4.9 88.3- 1.3 0.3---- 0.0------------
1956-10-16 4.4 12.4 -2.7 -6.6 85.0- 0.0 1.3---- 0.0------------
1956-10-15 5.5 12.9 2.5 -1.5 87.3- 0.3 0.7---- 0.0------------
1956-10-14 10.5 13.8 7.9 9.5 87.5- 5.7 4.3---- 1.3------------
1956-10-13 11.4 12.8 9.3 6.6 74.0- 7.3 5.7---- 0.0------------
1956-10-12 11.0 14.9 7.3 1.4 75.8- 5.7 2.7---- 0.0------------
1956-10-11 6.6 12.1 -1.4 -5.7 81.3- 2.7 2.0---- 0.0------------
1956-10-10 3.2 10.0 0.2 0.0 87.8- 2.7 0.7---- 0.0------------
1956-10-09 8.3 10.3 3.6 0.3 88.0- 7.7 3.7---- 0.2------------
1956-10-08 5.0 9.7 2.3 -0.4 86.0- 2.3 2.3---- 0.0------------
1956-10-07 6.7 9.5 5.3 4.8 86.5- 5.0 5.0---- 0.0------------
1956-10-06 6.4 8.9 5.4 4.8 89.5- 8.0 4.3---- 0.0------------
1956-10-05 9.9 14.1 7.4 5.3 86.8- 6.7 1.7---- 4.6------------
1956-10-04 11.2 15.3 8.7 4.9 86.8- 5.0 1.0---- 1.2------------
1956-10-03 14.6 19.9 10.3 11.4 80.0- 4.3 3.0---- 6.2------------
1956-10-02 17.9 26.1 9.7 5.2 73.0- 2.3 1.7---- 0.0------------
1956-10-01 16.4 25.1 9.6 6.1 83.0- 3.0 0.7---- 0.0------------
1956-09-30 13.6 19.9 7.5 4.0 85.8- 1.3 1.0---- 0.0------------
1956-09-29 17.3 22.7 14.6 12.1 76.8- 7.3 3.3---- 0.0------------
1956-09-28 15.7 19.4 12.9 8.6 76.3- 4.7 2.3---- 0.0------------
1956-09-27 17.1 23.1 12.8 9.8 73.3- 5.3 0.7---- 0.5------------
1956-09-26 17.8 24.0 8.4 2.9 49.5- 0.0 4.7---- 0.0------------
1956-09-25 13.8 23.4 3.9 0.5 68.8- 0.0 2.0---- 0.0------------
1956-09-24 10.3 18.4 5.8 4.1 80.0- 1.7 3.7---- 0.0------------
1956-09-23 12.0 20.5 6.4 1.6 82.8- 0.0 3.0---- 0.0------------
1956-09-22 12.9 21.1 5.2 0.9 84.0- 0.0 1.7---- 0.0------------
1956-09-21 10.6 19.5 1.7 -0.9 84.5- 0.0 0.3---- 0.0------------
1956-09-20 8.9 17.7 2.6 -1.5 87.0- 4.7 0.7---- 0.0------------
1956-09-19 8.5 16.3 1.2 -1.8 82.3- 2.3 1.7---- 0.0------------
1956-09-18 8.7 14.8 6.3 5.9 87.5- 4.7 0.7---- 0.0------------
1956-09-17 10.0 12.1 8.6 7.6 94.3- 7.7 4.7---- 8.2------------
1956-09-16 10.7 17.4 2.8 -0.8 79.0- 2.7 2.0---- 0.0------------
1956-09-15 9.5 15.0 3.6 0.3 92.5- 5.0 2.3---- 0.0------------
1956-09-14 11.0 16.6 8.5 6.8 82.5- 3.3 2.0---- 0.0------------
1956-09-13 10.0 14.3 8.6 7.0 86.8- 6.3 4.3---- 6.4------------
1956-09-12 11.2 16.5 8.9 12.5 81.8- 4.0 5.0---- 4.9------------
1956-09-11 16.4 18.9 15.4 14.0 86.5- 6.3 2.3---- 5.2------------
156.1 ms

 

Źródłem pochodzenia danych jest Instytut Meteorologii i Gospodarki Wodnej – Państwowy Instytut Badawczy. Dane Instytutu Meteorologii i Gospodarki Wodnej – Państwowego Instytutu Badawczego zostały przetworzone.

Dane źródłowe można odnaleźć na stronie https://dane.imgw.pl